Terminal Aerodrome Forecast
Issued by NWS

Current Version | Previous Version | Text Only | Print | Product List | Glossary On
Versions: 1 2 3 4 5 6 7 8 9 10 11 12 13 14
000
FTUS42 TJSJ 262300
TAFJMZ
TAF
TJMZ 262331Z 2700/2724 06006KT P6SM SCT030
     FM271530 25008KT P6SM FEW040
     FM271700 28010KT P6SM SCT030
     FM272200 08004KT P6SM SCT035
      AMD NOT SKED TIL 271100=

USA.gov is the U.S. government's official web portal to all federal, state and local government web resources and services.